Time;durP1;ratioP1;P1;durP2;ratioP2;P2;SDS_P1;SDS_P2;PMS_P1;PMS_P2;Temp;Humidity;BMP_temperature;BMP_pressure;BME280_temperature;BME280_humidity;BME280_pressure;Samples;Min_cycle;Max_cycle;Signal;HPM_P1;HPM_P2
2022/08/02 00:01:21;;;;;;;8.65;2.67;;;13.70;99.90;;;;;;5070278;28;20071;-82
2022/08/02 00:03:46;;;;;;;7.20;2.17;;;13.60;99.90;;;;;;5070539;28;20115;-82
2022/08/02 00:06:12;;;;;;;7.45;2.60;;;13.50;99.90;;;;;;5070489;28;20466;-82
2022/08/02 00:08:37;;;;;;;9.45;4.20;;;13.60;99.90;;;;;;5070415;28;20062;-82
2022/08/02 00:11:03;;;;;;;8.50;3.15;;;13.70;99.90;;;;;;5069910;28;20032;-82
2022/08/02 00:13:29;;;;;;;9.15;2.75;;;13.60;99.90;;;;;;5070551;28;20040;-82
2022/08/02 00:15:54;;;;;;;8.00;4.28;;;13.50;99.90;;;;;;5053630;28;20545;-82
2022/08/02 00:18:20;;;;;;;8.82;3.42;;;13.60;99.90;;;;;;5069992;28;20119;-82
2022/08/02 00:20:46;;;;;;;6.38;2.17;;;13.60;99.90;;;;;;5069924;28;20123;-82
2022/08/02 00:23:11;;;;;;;10.40;2.20;;;13.50;99.90;;;;;;5070420;28;20047;-82
2022/08/02 00:25:37;;;;;;;8.77;3.10;;;13.50;99.90;;;;;;5070315;28;20502;-82
2022/08/02 00:28:03;;;;;;;6.18;2.17;;;13.50;99.90;;;;;;5071257;28;20691;-82
2022/08/02 00:30:28;;;;;;;7.68;2.92;;;13.50;99.90;;;;;;5070146;28;20093;-82
2022/08/02 00:32:54;;;;;;;8.20;2.95;;;13.50;99.90;;;;;;5053004;28;20036;-82
2022/08/02 00:35:19;;;;;;;6.80;2.67;;;13.50;99.90;;;;;;5070092;28;20040;-81
2022/08/02 00:37:45;;;;;;;7.82;2.42;;;13.40;99.90;;;;;;5071411;28;20413;-82
2022/08/02 00:40:11;;;;;;;8.85;3.80;;;13.40;99.90;;;;;;5071286;28;20040;-81
2022/08/02 00:42:38;;;;;;;8.25;2.72;;;13.40;99.90;;;;;;5069566;28;20038;-81
2022/08/02 00:45:04;;;;;;;8.35;3.22;;;13.40;99.90;;;;;;5069881;28;20067;-82
2022/08/02 00:47:30;;;;;;;8.75;4.30;;;13.40;99.90;;;;;;5069981;28;20033;-82
2022/08/02 00:49:55;;;;;;;12.32;2.95;;;13.40;99.90;;;;;;5069938;28;20041;-82
2022/08/02 00:52:22;;;;;;;6.80;2.60;;;13.30;99.90;;;;;;5069770;28;20045;-81
2022/08/02 00:54:48;;;;;;;7.43;3.13;;;13.30;99.90;;;;;;5069825;28;20119;-82
2022/08/02 00:57:14;;;;;;;8.70;3.60;;;13.30;99.90;;;;;;5053310;28;20495;-81
2022/08/02 00:59:40;;;;;;;9.68;2.63;;;13.30;99.90;;;;;;5069731;28;20124;-81
2022/08/02 01:02:07;;;;;;;9.95;2.83;;;13.30;99.90;;;;;;5069497;28;20036;-82
2022/08/02 01:04:33;;;;;;;9.48;4.13;;;13.20;99.90;;;;;;5053307;28;20052;-82
2022/08/02 01:07:03;;;;;;;9.02;3.35;;;13.30;99.90;;;;;;5069945;28;20025;-82
2022/08/02 01:09:29;;;;;;;9.88;4.80;;;13.30;99.90;;;;;;5069573;28;20037;-81
2022/08/02 01:11:54;;;;;;;10.77;3.60;;;13.30;99.90;;;;;;5069133;28;20090;-82
2022/08/02 01:14:23;;;;;;;12.00;3.70;;;13.20;99.90;;;;;;5069911;28;20409;-82
2022/08/02 01:17:04;;;;;;;9.55;4.35;;;13.10;99.90;;;;;;5069835;28;20505;-82
2022/08/02 01:19:45;;;;;;;7.30;2.75;;;13.20;99.90;;;;;;5069824;28;20497;-82
2022/08/02 01:22:47;;;;;;;10.20;4.15;;;13.10;99.90;;;;;;5068871;28;20083;-82
2022/08/02 01:25:32;;;;;;;8.43;2.97;;;13.10;99.90;;;;;;5069660;28;20041;-83
2022/08/02 01:28:33;;;;;;;9.88;2.90;;;13.00;99.90;;;;;;5069670;28;20048;-82
2022/08/02 01:31:20;;;;;;;10.68;5.00;;;13.00;99.90;;;;;;5071899;28;20413;-82
2022/08/02 01:34:08;;;;;;;9.52;5.07;;;13.00;99.90;;;;;;5056676;28;20041;-82
2022/08/02 01:36:38;;;;;;;9.98;3.80;;;13.10;99.90;;;;;;5073270;28;20048;-82
2022/08/02 01:39:07;;;;;;;13.30;4.00;;;13.10;99.90;;;;;;5056459;28;20195;-82
2022/08/02 01:41:33;;;;;;;12.48;3.90;;;13.00;99.90;;;;;;5072502;28;20045;-81
2022/08/02 01:44:01;;;;;;;13.30;5.97;;;13.00;99.90;;;;;;5056775;28;20089;-81
2022/08/02 01:46:30;;;;;;;10.20;4.25;;;13.00;99.90;;;;;;5072650;28;20497;-81
2022/08/02 01:48:58;;;;;;;11.00;3.97;;;13.00;99.90;;;;;;5073026;28;20130;-82
2022/08/02 01:54:13;;;;;;;14.20;6.18;;;13.00;99.90;;;;;;5073030;28;20409;-81
2022/08/02 01:56:41;;;;;;;10.95;4.60;;;13.10;99.90;;;;;;5073185;28;20450;-81
2022/08/02 01:59:09;;;;;;;9.80;4.28;;;13.10;99.90;;;;;;5072744;28;20040;-81
2022/08/02 02:01:37;;;;;;;12.73;6.05;;;13.00;99.90;;;;;;5072365;28;20133;-81
2022/08/02 02:04:05;;;;;;;14.15;4.57;;;13.10;99.90;;;;;;5072565;28;20045;-81
2022/08/02 02:06:31;;;;;;;14.88;6.38;;;13.10;99.90;;;;;;5072838;28;20071;-81
2022/08/02 02:08:58;;;;;;;12.93;4.78;;;13.10;99.90;;;;;;5072665;28;20040;-81
2022/08/02 02:11:25;;;;;;;11.52;4.90;;;13.10;99.90;;;;;;5072640;28;20137;-82
2022/08/02 02:13:51;;;;;;;12.40;6.35;;;13.10;99.90;;;;;;5055945;28;20044;-81
2022/08/02 02:16:20;;;;;;;13.23;4.63;;;13.10;99.90;;;;;;5072460;28;20039;-82
2022/08/02 02:18:47;;;;;;;9.00;3.83;;;13.10;99.90;;;;;;5072522;28;20036;-82
2022/08/02 02:21:13;;;;;;;13.57;4.43;;;13.00;99.90;;;;;;5072104;28;20097;-82
2022/08/02 02:23:39;;;;;;;13.52;6.65;;;13.00;99.90;;;;;;5072416;28;20040;-82
2022/08/02 02:26:06;;;;;;;13.55;6.05;;;13.10;99.90;;;;;;5073890;28;20041;-82
2022/08/02 02:28:36;;;;;;;11.50;4.22;;;13.10;99.90;;;;;;5072280;28;20070;-82
2022/08/02 02:31:06;;;;;;;13.40;4.90;;;13.10;99.90;;;;;;5073053;28;20036;-82
2022/08/02 02:33:37;;;;;;;12.13;6.75;;;13.00;99.90;;;;;;5055894;28;20123;-82
2022/08/02 02:36:03;;;;;;;11.55;6.43;;;13.10;99.90;;;;;;5072471;28;20041;-82
2022/08/02 02:38:31;;;;;;;14.15;5.57;;;13.10;99.90;;;;;;5055536;28;20059;-81
2022/08/02 02:41:00;;;;;;;11.07;3.72;;;13.20;99.90;;;;;;5071421;28;20052;-81
2022/08/02 02:43:29;;;;;;;11.70;5.78;;;13.10;99.90;;;;;;5071939;28;20401;-82
2022/08/02 02:45:55;;;;;;;11.48;4.22;;;13.00;99.90;;;;;;5072216;28;20040;-81
2022/08/02 02:48:21;;;;;;;9.27;4.18;;;13.00;99.90;;;;;;5055251;28;20124;-81
2022/08/02 02:50:48;;;;;;;11.50;4.55;;;12.90;99.90;;;;;;5071690;28;20127;-81
2022/08/02 02:53:17;;;;;;;13.43;5.95;;;12.80;99.90;;;;;;5071759;28;20036;-81
2022/08/02 02:55:43;;;;;;;9.77;4.03;;;12.90;99.90;;;;;;5071920;28;20032;-81
2022/08/02 02:58:09;;;;;;;12.35;6.32;;;12.90;99.90;;;;;;5071575;28;20123;-81
2022/08/02 03:03:19;;;;;;;12.95;6.30;;;12.90;99.90;;;;;;5071666;28;20509;-82
2022/08/02 03:05:45;;;;;;;10.25;4.10;;;13.00;99.90;;;;;;5071706;28;20072;-82
2022/08/02 03:08:11;;;;;;;9.60;3.50;;;12.90;99.90;;;;;;5071356;28;20041;-82
2022/08/02 03:10:38;;;;;;;11.25;5.93;;;12.90;99.90;;;;;;5071482;28;20036;-82
2022/08/02 03:13:03;;;;;;;8.65;3.90;;;12.90;99.90;;;;;;5054578;28;20122;-82
2022/08/02 03:15:30;;;;;;;11.02;5.95;;;12.90;99.90;;;;;;5071474;28;20044;-82
2022/08/02 03:17:56;;;;;;;11.63;4.53;;;12.90;99.90;;;;;;5071415;28;20123;-82
2022/08/02 03:20:22;;;;;;;11.05;3.92;;;12.90;99.90;;;;;;5054535;28;20067;-82
2022/08/02 03:22:48;;;;;;;11.63;5.95;;;12.90;99.90;;;;;;5070978;28;20109;-82
2022/08/02 03:25:15;;;;;;;14.00;5.22;;;12.90;99.90;;;;;;5071316;28;20385;-82
2022/08/02 03:27:41;;;;;;;11.95;4.38;;;12.90;99.90;;;;;;5071586;28;20139;-82
2022/08/02 03:30:09;;;;;;;14.52;4.63;;;12.90;99.90;;;;;;5070968;28;20574;-82
2022/08/02 03:32:36;;;;;;;14.63;6.70;;;12.80;99.90;;;;;;5071041;28;20400;-82
2022/08/02 03:35:04;;;;;;;12.45;4.93;;;12.90;99.90;;;;;;5054310;28;20497;-81
2022/08/02 03:37:31;;;;;;;14.35;7.00;;;12.90;99.90;;;;;;5070676;28;20409;-82
2022/08/02 03:39:57;;;;;;;11.32;6.53;;;12.90;99.90;;;;;;5070965;28;20082;-81
2022/08/02 03:42:25;;;;;;;14.18;4.47;;;13.00;99.90;;;;;;5070594;28;20045;-81
2022/08/02 03:44:52;;;;;;;10.52;4.30;;;12.90;99.90;;;;;;5070813;28;20040;-81
2022/08/02 03:47:18;;;;;;;10.80;4.60;;;12.80;99.90;;;;;;5070511;28;20045;-81
2022/08/02 03:49:45;;;;;;;14.88;5.00;;;12.80;99.90;;;;;;5070670;28;20036;-82
2022/08/02 03:52:11;;;;;;;14.32;6.57;;;12.80;99.90;;;;;;5052820;28;20409;-81
2022/08/02 03:54:36;;;;;;;13.63;7.25;;;12.90;99.90;;;;;;5070507;28;20032;-81
2022/08/02 03:57:06;;;;;;;10.38;4.63;;;12.90;99.90;;;;;;5054022;28;20043;-81
2022/08/02 03:59:43;;;;;;;12.93;4.70;;;12.90;99.90;;;;;;5070486;28;20072;-82
2022/08/02 04:02:09;;;;;;;12.50;6.78;;;12.90;99.90;;;;;;5053644;28;20127;-82
2022/08/02 04:04:35;;;;;;;14.15;4.75;;;12.90;99.90;;;;;;5053540;28;20044;-81
2022/08/02 04:07:01;;;;;;;11.90;4.90;;;12.90;99.90;;;;;;5070859;28;20036;-82
2022/08/02 04:09:26;;;;;;;14.05;6.72;;;12.90;99.90;;;;;;5070225;28;20082;-82
2022/08/02 04:11:52;;;;;;;11.07;4.53;;;12.90;99.90;;;;;;5070087;28;20040;-82
2022/08/02 04:14:18;;;;;;;11.23;4.70;;;12.90;99.90;;;;;;5070367;28;20036;-82
2022/08/02 04:16:45;;;;;;;11.77;5.47;;;12.90;99.90;;;;;;5053378;28;20040;-82
2022/08/02 04:19:18;;;;;;;15.45;7.43;;;12.90;99.90;;;;;;5070026;28;20162;-81
2022/08/02 04:21:45;;;;;;;13.57;5.75;;;13.00;99.90;;;;;;5053074;28;20051;-81
2022/08/02 04:24:12;;;;;;;14.93;7.18;;;13.00;99.90;;;;;;5070215;28;20040;-81
2022/08/02 04:26:42;;;;;;;15.00;6.00;;;13.00;99.90;;;;;;5053526;28;20044;-81
2022/08/02 04:29:09;;;;;;;13.05;7.63;;;13.00;99.90;;;;;;5053438;28;20052;-82
2022/08/02 04:31:35;;;;;;;14.15;5.22;;;13.10;99.90;;;;;;5069513;28;20068;-82
2022/08/02 04:34:01;;;;;;;15.85;5.35;;;13.10;99.90;;;;;;5053182;28;20044;-83
2022/08/02 04:36:27;;;;;;;15.43;7.78;;;13.10;99.90;;;;;;5070036;28;20462;-83
2022/08/02 04:38:53;;;;;;;9.90;5.00;;;13.10;99.90;;;;;;5053205;28;20044;-83
2022/08/02 04:41:19;;;;;;;14.60;7.78;;;13.10;99.90;;;;;;5053213;28;20036;-82
2022/08/02 04:43:44;;;;;;;11.40;5.50;;;13.20;99.90;;;;;;5070074;28;20045;-82
2022/08/02 04:46:10;;;;;;;13.77;8.30;;;13.20;99.90;;;;;;5069855;28;20043;-83
2022/08/02 04:48:35;;;;;;;13.00;5.72;;;13.20;99.90;;;;;;5053195;28;20098;-82
2022/08/02 04:51:01;;;;;;;12.75;7.50;;;13.20;99.90;;;;;;5069366;28;20493;-82
2022/08/02 04:53:26;;;;;;;10.77;5.63;;;13.30;99.90;;;;;;5069910;28;20070;-82
2022/08/02 04:55:53;;;;;;;13.63;7.93;;;13.30;99.90;;;;;;5069847;28;20041;-82
2022/08/02 04:58:19;;;;;;;14.10;6.22;;;13.40;99.90;;;;;;5052439;28;20043;-82
2022/08/02 05:00:44;;;;;;;14.48;8.30;;;13.40;99.90;;;;;;5069422;28;20048;-83
2022/08/02 05:03:10;;;;;;;18.58;6.18;;;13.50;99.90;;;;;;5069807;28;20401;-82
2022/08/02 05:05:36;;;;;;;14.23;6.82;;;13.50;99.90;;;;;;5057142;28;20409;-82
2022/08/02 05:08:02;;;;;;;12.95;8.43;;;13.50;99.90;;;;;;5075074;28;20504;-82
2022/08/02 05:10:28;;;;;;;14.07;6.70;;;13.60;99.90;;;;;;5074058;28;20036;-82
2022/08/02 05:12:54;;;;;;;17.77;8.73;;;13.60;99.90;;;;;;5073467;28;20539;-82
2022/08/02 05:15:20;;;;;;;12.68;5.45;;;13.60;99.90;;;;;;5073950;28;20086;-82
2022/08/02 05:17:46;;;;;;;15.73;7.43;;;13.70;99.90;;;;;;5073699;28;20777;-83
2022/08/02 05:20:12;;;;;;;15.50;8.02;;;13.70;99.90;;;;;;5073971;28;20428;-82
2022/08/02 05:22:39;;;;;;;14.75;8.35;;;13.70;99.90;;;;;;5056430;28;20036;-82
2022/08/02 05:25:05;;;;;;;14.38;6.22;;;13.80;99.90;;;;;;5073824;28;20036;-83
2022/08/02 05:27:32;;;;;;;15.75;9.07;;;13.80;99.90;;;;;;5073459;28;20043;-82
2022/08/02 05:29:58;;;;;;;13.55;7.97;;;13.90;99.90;;;;;;5071421;28;20040;-82
2022/08/02 05:32:24;;;;;;;12.23;5.97;;;14.00;99.90;;;;;;5073262;28;20037;-83
2022/08/02 05:34:50;;;;;;;15.43;8.38;;;14.00;99.90;;;;;;5056578;28;20429;-82
2022/08/02 05:37:16;;;;;;;13.63;6.38;;;14.00;99.90;;;;;;5073345;28;20036;-82
2022/08/02 05:39:41;;;;;;;16.52;8.88;;;14.00;99.90;;;;;;5056305;28;20036;-82
2022/08/02 05:42:07;;;;;;;11.80;6.28;;;14.10;99.90;;;;;;5072840;28;20072;-82
2022/08/02 05:44:32;;;;;;;13.07;8.70;;;14.10;99.90;;;;;;5073119;28;20048;-82
2022/08/02 05:46:58;;;;;;;13.45;6.50;;;14.20;99.90;;;;;;5072705;28;20052;-83
2022/08/02 05:49:23;;;;;;;14.48;8.60;;;14.20;99.90;;;;;;5074392;28;20044;-82
2022/08/02 05:52:15;;;;;;;14.73;8.50;;;14.30;99.90;;;;;;5072571;28;20032;-82
2022/08/02 05:54:55;;;;;;;13.27;6.93;;;14.40;99.90;;;;;;5035144;28;20049;-82
2022/08/02 05:57:36;;;;;;;16.90;8.20;;;14.40;99.90;;;;;;5035110;28;20557;-83
2022/08/02 06:00:08;;;;;;;13.73;5.90;;;14.60;99.90;;;;;;5035087;28;20126;-83
2022/08/02 06:02:48;;;;;;;17.05;6.68;;;14.60;99.90;;;;;;5034894;28;20079;-82
2022/08/02 06:05:26;;;;;;;15.10;8.73;;;14.60;99.90;;;;;;5034647;28;20045;-82
2022/08/02 06:07:56;;;;;;;13.57;8.68;;;14.70;99.90;;;;;;5029902;28;20049;-81
2022/08/02 06:10:23;;;;;;;12.65;7.28;;;14.80;99.90;;;;;;5034822;28;20041;-82
2022/08/02 06:12:51;;;;;;;15.18;8.80;;;14.90;99.90;;;;;;5034582;28;20383;-81
2022/08/02 06:15:19;;;;;;;12.20;6.50;;;14.90;99.90;;;;;;5017534;28;20560;-82
2022/08/02 06:17:45;;;;;;;12.88;8.52;;;15.00;99.90;;;;;;5018230;28;20124;-82
2022/08/02 06:20:12;;;;;;;13.52;8.40;;;15.10;99.90;;;;;;5034795;28;20060;-82
2022/08/02 06:22:41;;;;;;;15.77;7.28;;;15.20;99.90;;;;;;5050900;28;20037;-82
2022/08/02 06:25:08;;;;;;;15.77;8.63;;;15.30;99.90;;;;;;5051385;28;20059;-82
2022/08/02 06:27:34;;;;;;;15.70;8.57;;;15.40;99.90;;;;;;5051325;28;20584;-82
2022/08/02 06:30:01;;;;;;;13.93;6.50;;;15.50;99.90;;;;;;5018182;28;20041;-82
2022/08/02 06:32:27;;;;;;;14.27;8.00;;;15.60;99.90;;;;;;5031818;28;20056;-82
2022/08/02 06:34:52;;;;;;;11.88;6.05;;;15.60;99.90;;;;;;5052196;28;20124;-83
2022/08/02 06:37:24;;;;;;;14.45;7.50;;;15.70;99.90;;;;;;5052364;28;20039;-83
2022/08/02 06:39:55;;;;;;;13.48;7.93;;;15.80;99.90;;;;;;5052239;28;20041;-83
2022/08/02 06:42:30;;;;;;;15.10;5.57;;;15.90;99.90;;;;;;5051919;28;20079;-82
2022/08/02 06:44:56;;;;;;;12.73;6.78;;;16.00;99.90;;;;;;5051821;28;20044;-83
2022/08/02 06:47:21;;;;;;;15.02;6.45;;;16.10;99.90;;;;;;5052004;28;20047;-83
2022/08/02 06:49:47;;;;;;;13.70;5.35;;;16.30;99.90;;;;;;5035418;28;20128;-83
2022/08/02 06:52:13;;;;;;;13.18;6.32;;;16.30;99.90;;;;;;5051215;28;20037;-83
2022/08/02 06:54:41;;;;;;;13.50;6.03;;;16.40;99.90;;;;;;5034938;28;20040;-83
2022/08/02 06:57:08;;;;;;;11.68;4.82;;;16.60;99.90;;;;;;5051785;28;20497;-83
2022/08/02 06:59:34;;;;;;;13.55;5.82;;;16.60;99.90;;;;;;5035049;28;20056;-83
2022/08/02 07:02:01;;;;;;;12.23;5.65;;;16.70;99.90;;;;;;5034823;28;20041;-83
2022/08/02 07:04:27;;;;;;;12.15;5.63;;;16.80;99.90;;;;;;5035069;28;20037;-83
2022/08/02 07:06:54;;;;;;;11.80;5.85;;;16.80;99.90;;;;;;5035325;28;20052;-84
2022/08/02 07:09:19;;;;;;;11.43;4.90;;;16.90;99.90;;;;;;5035020;28;20041;-84
2022/08/02 07:11:45;;;;;;;13.23;4.78;;;17.00;99.90;;;;;;5051261;28;20033;-83
2022/08/02 07:14:10;;;;;;;11.30;4.88;;;17.10;99.90;;;;;;5051275;28;20085;-83
2022/08/02 07:16:36;;;;;;;13.95;5.10;;;17.20;99.90;;;;;;5051780;28;20041;-83
2022/08/02 07:19:02;;;;;;;12.93;4.40;;;17.40;99.90;;;;;;5051546;28;20650;-83
2022/08/02 07:21:28;;;;;;;9.82;4.50;;;17.50;99.90;;;;;;5034500;28;20056;-83
2022/08/02 07:23:53;;;;;;;11.52;4.10;;;17.60;99.90;;;;;;5034706;28;20071;-84
2022/08/02 07:26:19;;;;;;;10.50;3.65;;;17.70;99.90;;;;;;5051658;28;20037;-84
2022/08/02 07:28:44;;;;;;;10.60;3.78;;;17.80;99.90;;;;;;5050041;28;20496;-84
2022/08/02 07:31:10;;;;;;;9.38;2.78;;;17.90;99.90;;;;;;5050697;28;20079;-84
2022/08/02 07:33:36;;;;;;;10.73;3.28;;;18.00;99.90;;;;;;5034713;28;20036;-83
2022/08/02 07:36:02;;;;;;;10.35;3.38;;;18.10;99.90;;;;;;5051111;28;20033;-84
2022/08/02 07:38:27;;;;;;;9.48;2.80;;;18.10;99.90;;;;;;5051105;28;20045;-84
2022/08/02 07:40:53;;;;;;;10.15;2.90;;;18.20;99.90;;;;;;5050751;28;20059;-83
2022/08/02 07:43:18;;;;;;;9.70;2.92;;;18.20;99.90;;;;;;5050901;28;20041;-83
2022/08/02 07:45:44;;;;;;;8.95;2.50;;;18.30;99.90;;;;;;5034220;28;20493;-84
2022/08/02 07:48:10;;;;;;;7.57;2.80;;;18.30;99.90;;;;;;5051998;28;20086;-84
2022/08/02 07:50:35;;;;;;;8.93;2.58;;;18.40;99.90;;;;;;5053297;28;20402;-84
2022/08/02 07:53:01;;;;;;;9.15;2.72;;;18.50;99.90;;;;;;5062513;28;20127;-83
2022/08/02 07:55:26;;;;;;;7.72;2.30;;;18.60;99.90;;;;;;5070723;28;20037;-82
2022/08/02 07:57:52;;;;;;;8.82;2.65;;;18.70;99.90;;;;;;5070782;28;20049;-82
2022/08/02 08:00:18;;;;;;;9.40;2.20;;;18.80;99.90;;;;;;5071719;28;20504;-82
2022/08/02 08:02:45;;;;;;;9.30;2.50;;;18.90;99.90;;;;;;5071800;28;20049;-82
2022/08/02 08:05:11;;;;;;;8.25;2.53;;;19.00;99.90;;;;;;5070728;28;20103;-82
2022/08/02 08:07:37;;;;;;;7.90;2.28;;;19.10;99.90;;;;;;5065878;28;20032;-82
2022/08/02 08:10:04;;;;;;;8.85;2.50;;;19.20;99.90;;;;;;5050095;28;20450;-84
2022/08/02 08:12:30;;;;;;;8.45;2.65;;;19.30;99.90;;;;;;5070016;28;20033;-83
2022/08/02 08:14:55;;;;;;;10.10;3.05;;;19.40;99.90;;;;;;5070312;28;20413;-83
2022/08/02 08:17:21;;;;;;;8.82;2.78;;;19.50;99.90;;;;;;5053705;28;20146;-83
2022/08/02 08:19:46;;;;;;;10.60;2.80;;;19.60;99.90;;;;;;5070397;28;20476;-84
2022/08/02 08:22:12;;;;;;;11.02;3.08;;;19.70;99.90;;;;;;5069808;28;20036;-83
2022/08/02 08:24:38;;;;;;;7.70;2.47;;;19.80;99.90;;;;;;5070275;28;20406;-83
2022/08/02 08:27:05;;;;;;;8.13;2.67;;;19.80;99.90;;;;;;5070056;28;20046;-84
2022/08/02 08:29:30;;;;;;;8.63;2.47;;;19.90;99.90;;;;;;5070026;28;20040;-83
2022/08/02 08:31:56;;;;;;;8.18;2.45;;;20.10;99.90;;;;;;5069704;28;20041;-83
2022/08/02 08:34:23;;;;;;;12.65;3.15;;;20.20;99.90;;;;;;5070221;28;20037;-83
2022/08/02 08:36:49;;;;;;;7.13;2.17;;;20.30;99.90;;;;;;5053277;28;20085;-83
2022/08/02 08:39:14;;;;;;;6.72;2.13;;;20.40;99.90;;;;;;5069998;28;20411;-83
2022/08/02 08:41:45;;;;;;;9.00;2.30;;;20.50;99.90;;;;;;5069470;28;20611;-84
2022/08/02 08:44:11;;;;;;;8.20;2.05;;;20.60;99.90;;;;;;5053562;28;20421;-84
2022/08/02 08:46:39;;;;;;;6.90;2.22;;;20.70;99.90;;;;;;5064422;28;20033;-84
2022/08/02 08:49:08;;;;;;;5.88;1.83;;;20.80;99.90;;;;;;5050246;28;20512;-83
2022/08/02 08:51:42;;;;;;;7.00;2.00;;;20.90;99.90;;;;;;5035539;28;20072;-84
2022/08/02 08:54:11;;;;;;;7.20;2.10;;;20.90;99.90;;;;;;5049768;28;20037;-83
2022/08/02 08:56:38;;;;;;;9.05;2.42;;;21.00;99.80;;;;;;5050068;28;20032;-83
2022/08/02 08:59:05;;;;;;;6.03;1.83;;;21.00;99.90;;;;;;5050007;28;20064;-84
2022/08/02 09:01:31;;;;;;;6.68;1.90;;;21.10;99.60;;;;;;5049653;28;20037;-83
2022/08/02 09:03:57;;;;;;;8.18;1.92;;;21.20;96.90;;;;;;5050106;28;20044;-83
2022/08/02 09:06:23;;;;;;;7.55;1.90;;;21.30;96.30;;;;;;5033176;28;20037;-84
2022/08/02 09:08:49;;;;;;;6.47;1.80;;;21.40;97.60;;;;;;5049467;28;20070;-83
2022/08/02 09:11:16;;;;;;;5.80;2.00;;;21.50;97.10;;;;;;5049363;28;20557;-83
2022/08/02 09:13:57;;;;;;;7.28;2.03;;;21.50;95.30;;;;;;5049534;28;20044;-84
2022/08/02 09:16:33;;;;;;;6.75;1.88;;;21.60;97.60;;;;;;5051056;28;20055;-82
2022/08/02 09:19:00;;;;;;;8.88;2.47;;;21.70;96.30;;;;;;5049571;28;20090;-83
2022/08/02 09:21:34;;;;;;;7.40;1.80;;;21.80;98.10;;;;;;5048980;28;20048;-82
2022/08/02 09:24:00;;;;;;;6.85;2.10;;;21.90;97.30;;;;;;5049974;28;20516;-83
2022/08/02 09:26:26;;;;;;;7.85;2.22;;;21.90;99.10;;;;;;5033029;28;20513;-84
2022/08/02 09:28:59;;;;;;;6.07;1.92;;;22.10;97.70;;;;;;5049541;28;20071;-83
2022/08/02 09:31:25;;;;;;;7.82;2.47;;;22.20;99.20;;;;;;5049120;28;20508;-83
2022/08/02 09:33:54;;;;;;;7.20;2.17;;;22.30;97.80;;;;;;5032774;28;20080;-83
2022/08/02 09:36:20;;;;;;;7.20;1.90;;;22.40;97.80;;;;;;5049565;28;20086;-83
2022/08/02 09:39:00;;;;;;;6.85;2.00;;;22.50;98.20;;;;;;5049369;28;20045;-83
2022/08/02 09:41:31;;;;;;;7.10;2.25;;;22.70;95.30;;;;;;5068644;28;20136;-83
2022/08/02 09:43:58;;;;;;;7.57;2.38;;;22.70;96.80;;;;;;5052298;28;20089;-83
2022/08/02 09:46:26;;;;;;;7.00;2.17;;;22.80;94.60;;;;;;5068882;28;20041;-84
2022/08/02 09:48:58;;;;;;;5.93;2.10;;;23.00;93.20;;;;;;5052059;28;20044;-83
2022/08/02 09:51:24;;;;;;;7.87;3.07;;;23.00;94.70;;;;;;5070060;28;20059;-84
2022/08/02 09:53:53;;;;;;;9.15;2.65;;;23.20;93.30;;;;;;5071617;28;20313;-84
2022/08/02 09:56:19;;;;;;;8.90;2.55;;;23.20;92.60;;;;;;5056083;28;20036;-84
2022/08/02 09:58:46;;;;;;;8.20;2.58;;;23.30;92.30;;;;;;5072841;28;20120;-84
2022/08/02 10:01:11;;;;;;;8.27;2.63;;;23.40;92.20;;;;;;5072671;28;20097;-84
2022/08/02 10:03:52;;;;;;;6.60;2.63;;;23.40;93.80;;;;;;5055950;28;20141;-84
2022/08/02 10:06:18;;;;;;;8.15;2.30;;;23.50;94.10;;;;;;5072953;28;20044;-84
2022/08/02 10:08:43;;;;;;;8.45;2.58;;;23.60;95.80;;;;;;5056110;28;20040;-84
2022/08/02 10:11:09;;;;;;;7.07;2.80;;;23.70;96.80;;;;;;5072419;28;20049;-84
2022/08/02 10:13:35;;;;;;;7.43;2.72;;;23.80;95.60;;;;;;5072927;28;20048;-84
2022/08/02 10:16:02;;;;;;;9.57;3.10;;;23.80;96.80;;;;;;5055496;28;20090;-84
2022/08/02 10:18:28;;;;;;;8.07;3.20;;;24.00;99.90;;;;;;5055869;28;20128;-84
2022/08/02 10:20:56;;;;;;;7.28;3.30;;;24.10;96.70;;;;;;5052327;28;20480;-84
2022/08/02 10:23:25;;;;;;;8.07;3.05;;;24.10;96.30;;;;;;5036071;28;20119;-84
2022/08/02 10:25:53;;;;;;;7.88;3.42;;;24.10;96.60;;;;;;5052123;28;20068;-83
2022/08/02 10:28:25;;;;;;;8.10;4.20;;;24.20;97.80;;;;;;5052360;28;20041;-84
2022/08/02 10:30:52;;;;;;;8.30;3.40;;;24.20;98.00;;;;;;5052256;28;20041;-84
2022/08/02 10:33:18;;;;;;;8.30;3.90;;;24.20;99.90;;;;;;5052480;28;20029;-84
2022/08/02 10:35:46;;;;;;;9.30;3.80;;;24.30;98.70;;;;;;5052277;28;20056;-84
2022/08/02 10:38:15;;;;;;;9.88;3.95;;;24.30;98.90;;;;;;5052071;28;20048;-84
2022/08/02 10:40:46;;;;;;;10.23;4.35;;;24.40;99.90;;;;;;5052101;28;20055;-84
2022/08/02 10:43:32;;;;;;;7.72;3.60;;;24.50;99.90;;;;;;5033939;28;20040;-84
2022/08/02 10:46:24;;;;;;;9.10;3.97;;;24.60;99.90;;;;;;5051435;28;20076;-84
2022/08/02 10:49:12;;;;;;;10.10;4.25;;;24.80;99.90;;;;;;5054543;28;20040;-84
2022/08/02 10:51:59;;;;;;;9.23;4.10;;;24.80;99.90;;;;;;5071375;28;20041;-83
2022/08/02 10:54:25;;;;;;;8.50;3.50;;;25.00;98.40;;;;;;5054933;28;20041;-84
2022/08/02 10:56:54;;;;;;;7.85;3.58;;;25.10;99.20;;;;;;5071757;28;20047;-84
2022/08/02 10:59:28;;;;;;;10.30;3.65;;;25.20;98.40;;;;;;5073233;28;20078;-84
2022/08/02 11:02:02;;;;;;;9.68;4.07;;;25.20;99.00;;;;;;5054828;28;20049;-83
2022/08/02 11:04:52;;;;;;;8.60;3.55;;;25.30;96.50;;;;;;5054979;28;20040;-84
2022/08/02 11:07:50;;;;;;;8.75;3.88;;;25.40;97.20;;;;;;5071102;28;20072;-84
2022/08/02 11:10:25;;;;;;;10.07;4.90;;;25.50;97.70;;;;;;5071484;28;20067;-83
2022/08/02 11:13:06;;;;;;;11.13;4.43;;;25.50;95.50;;;;;;5053463;28;20646;-84
2022/08/02 11:15:52;;;;;;;8.73;3.55;;;25.60;96.90;;;;;;5071335;28;20036;-83
2022/08/02 11:18:19;;;;;;;8.98;4.22;;;25.70;95.70;;;;;;5071124;28;20090;-83
2022/08/02 11:20:45;;;;;;;9.18;4.68;;;25.70;96.20;;;;;;5070620;28;20040;-83
2022/08/02 11:23:38;;;;;;;9.00;4.35;;;25.70;96.00;;;;;;5071080;28;20040;-83
2022/08/02 11:26:29;;;;;;;8.65;3.30;;;25.80;95.60;;;;;;5071391;28;20085;-83
2022/08/02 11:28:59;;;;;;;6.78;2.85;;;25.90;96.30;;;;;;5053078;28;20080;-83
2022/08/02 11:31:25;;;;;;;7.32;3.03;;;26.00;93.10;;;;;;5054276;28;20505;-83
2022/08/02 11:33:51;;;;;;;8.82;3.38;;;26.10;93.30;;;;;;5071497;28;20040;-84
2022/08/02 11:36:17;;;;;;;8.45;3.10;;;26.10;90.70;;;;;;5071485;28;20486;-83
2022/08/02 11:38:44;;;;;;;7.10;3.03;;;26.10;92.80;;;;;;5071441;28;20040;-85
2022/08/02 11:41:20;;;;;;;6.57;2.70;;;26.20;92.70;;;;;;5070614;28;20047;-83
2022/08/02 11:43:46;;;;;;;8.02;2.50;;;26.30;90.60;;;;;;5071356;28;20041;-84
2022/08/02 11:46:13;;;;;;;5.55;2.65;;;26.30;91.00;;;;;;5054135;28;20085;-84
2022/08/02 11:48:40;;;;;;;6.95;2.40;;;26.40;91.10;;;;;;5070216;28;20114;-84
2022/08/02 11:51:10;;;;;;;7.00;2.80;;;26.50;89.10;;;;;;5070270;28;20048;-84
2022/08/02 11:53:52;;;;;;;7.47;2.58;;;26.40;84.50;;;;;;5070614;28;20037;-84
2022/08/02 11:56:26;;;;;;;5.40;2.15;;;26.40;81.60;;;;;;5070605;28;20028;-84
2022/08/02 11:59:06;;;;;;;6.85;2.40;;;26.40;82.00;;;;;;5054107;28;20040;-84
2022/08/02 12:01:33;;;;;;;6.72;2.53;;;26.40;79.30;;;;;;5070197;28;20043;-84
2022/08/02 12:04:01;;;;;;;6.20;2.28;;;26.30;76.40;;;;;;5070523;28;20119;-84
2022/08/02 12:06:27;;;;;;;7.65;2.42;;;26.30;76.30;;;;;;5070674;28;20040;-84
2022/08/02 12:09:07;;;;;;;4.72;2.05;;;26.20;80.60;;;;;;5070566;28;20052;-84
2022/08/02 12:11:35;;;;;;;4.95;2.03;;;26.20;75.90;;;;;;5053433;28;20401;-84
2022/08/02 12:14:01;;;;;;;5.93;2.10;;;26.20;75.30;;;;;;5053122;28;20123;-84
2022/08/02 12:19:39;;;;;;;7.85;2.40;;;26.40;72.30;;;;;;5070385;28;20071;-84
2022/08/02 12:22:11;;;;;;;6.53;2.20;;;26.50;73.70;;;;;;5053201;28;20071;-84
2022/08/02 12:24:41;;;;;;;5.30;2.25;;;26.60;72.80;;;;;;5071565;28;20036;-84
2022/08/02 12:27:07;;;;;;;6.28;2.20;;;26.60;72.70;;;;;;5070239;28;20097;-84
2022/08/02 12:29:35;;;;;;;6.38;2.58;;;26.70;77.00;;;;;;5070233;28;20040;-84
2022/08/02 12:32:02;;;;;;;7.78;2.60;;;26.70;75.80;;;;;;5070118;28;20684;-84
2022/08/02 12:34:29;;;;;;;6.22;2.75;;;26.80;79.10;;;;;;5069947;28;20446;-84
2022/08/02 12:37:09;;;;;;;7.97;2.58;;;26.80;77.10;;;;;;5070147;28;20173;-84
2022/08/02 12:39:40;;;;;;;6.47;2.33;;;26.90;78.20;;;;;;5070275;28;20093;-84
2022/08/02 12:42:08;;;;;;;7.82;2.70;;;27.00;80.40;;;;;;5069915;28;20040;-84
2022/08/02 12:44:36;;;;;;;6.97;2.75;;;27.00;76.50;;;;;;5070137;28;20113;-84
2022/08/02 12:47:08;;;;;;;6.22;2.63;;;27.10;78.60;;;;;;5069849;28;20040;-84
2022/08/02 12:49:34;;;;;;;8.77;2.90;;;27.10;80.70;;;;;;5053415;28;20043;-84
2022/08/02 12:52:00;;;;;;;7.05;2.70;;;27.00;76.50;;;;;;5069625;28;20119;-84
2022/08/02 12:54:37;;;;;;;7.03;2.80;;;27.00;82.70;;;;;;5053187;28;20044;-84
2022/08/02 12:57:12;;;;;;;8.20;2.90;;;26.80;81.20;;;;;;5070384;28;20053;-84
2022/08/02 12:59:40;;;;;;;7.75;2.63;;;26.80;79.50;;;;;;5069805;28;20409;-84